sensor_id;sensor_type;location;lat;lon;timestamp;pressure;altitude;pressure_sealevel;temperature;humidity
54936;BME280;40838;50.676;7.838;2023-01-13T00:00:56;97466.47;;;12.55;100.00
54936;BME280;40838;50.676;7.838;2023-01-13T00:03:23;97456.44;;;13.41;100.00
54936;BME280;40838;50.676;7.838;2023-01-13T00:05:51;97450.84;;;13.03;100.00
54936;BME280;40838;50.676;7.838;2023-01-13T00:08:20;97447.66;;;13.01;100.00
54936;BME280;40838;50.676;7.838;2023-01-13T00:10:46;97448.72;;;12.51;100.00
54936;BME280;40838;50.676;7.838;2023-01-13T00:13:13;97448.34;;;12.18;100.00
54936;BME280;40838;50.676;7.838;2023-01-13T00:15:40;97445.34;;;12.89;100.00
54936;BME280;40838;50.676;7.838;2023-01-13T00:18:07;97454.53;;;12.58;100.00
54936;BME280;40838;50.676;7.838;2023-01-13T00:20:34;97448.22;;;12.98;100.00
54936;BME280;40838;50.676;7.838;2023-01-13T00:23:01;97452.72;;;12.98;100.00
54936;BME280;40838;50.676;7.838;2023-01-13T00:25:30;97448.50;;;12.97;100.00
54936;BME280;40838;50.676;7.838;2023-01-13T00:27:57;97444.69;;;12.63;100.00
54936;BME280;40838;50.676;7.838;2023-01-13T00:30:24;97432.75;;;12.71;100.00
54936;BME280;40838;50.676;7.838;2023-01-13T00:32:50;97436.59;;;12.44;100.00
54936;BME280;40838;50.676;7.838;2023-01-13T00:35:18;97431.69;;;13.16;100.00
54936;BME280;40838;50.676;7.838;2023-01-13T00:37:45;97437.59;;;12.54;100.00
54936;BME280;40838;50.676;7.838;2023-01-13T00:40:12;97421.25;;;12.46;100.00
54936;BME280;40838;50.676;7.838;2023-01-13T00:42:40;97416.28;;;12.35;100.00
54936;BME280;40838;50.676;7.838;2023-01-13T00:45:24;97421.06;;;12.77;100.00
54936;BME280;40838;50.676;7.838;2023-01-13T00:47:51;97413.53;;;13.00;100.00
54936;BME280;40838;50.676;7.838;2023-01-13T00:50:18;97405.72;;;12.30;100.00
54936;BME280;40838;50.676;7.838;2023-01-13T00:52:45;97413.66;;;12.30;100.00
54936;BME280;40838;50.676;7.838;2023-01-13T00:55:12;97401.38;;;11.48;100.00
54936;BME280;40838;50.676;7.838;2023-01-13T00:57:40;97412.50;;;11.15;100.00
54936;BME280;40838;50.676;7.838;2023-01-13T01:00:08;97406.16;;;11.36;100.00
54936;BME280;40838;50.676;7.838;2023-01-13T01:02:35;97412.69;;;12.05;100.00
54936;BME280;40838;50.676;7.838;2023-01-13T01:05:01;97416.69;;;10.95;100.00
54936;BME280;40838;50.676;7.838;2023-01-13T01:07:28;97431.22;;;11.13;100.00
54936;BME280;40838;50.676;7.838;2023-01-13T01:09:55;97410.91;;;11.03;100.00
54936;BME280;40838;50.676;7.838;2023-01-13T01:12:22;97417.50;;;11.31;100.00
54936;BME280;40838;50.676;7.838;2023-01-13T01:14:51;97413.25;;;11.61;100.00
54936;BME280;40838;50.676;7.838;2023-01-13T01:17:17;97407.97;;;11.66;100.00
54936;BME280;40838;50.676;7.838;2023-01-13T01:19:44;97410.34;;;11.63;100.00
54936;BME280;40838;50.676;7.838;2023-01-13T01:22:11;97410.59;;;11.71;100.00
54936;BME280;40838;50.676;7.838;2023-01-13T01:24:38;97406.44;;;11.29;100.00
54936;BME280;40838;50.676;7.838;2023-01-13T01:27:05;97398.50;;;11.29;100.00
54936;BME280;40838;50.676;7.838;2023-01-13T01:29:32;97404.28;;;11.31;100.00
54936;BME280;40838;50.676;7.838;2023-01-13T01:32:00;97409.31;;;11.43;100.00
54936;BME280;40838;50.676;7.838;2023-01-13T01:34:27;97397.44;;;11.30;100.00
54936;BME280;40838;50.676;7.838;2023-01-13T01:36:53;97397.66;;;10.78;100.00
54936;BME280;40838;50.676;7.838;2023-01-13T01:39:20;97391.09;;;11.06;100.00
54936;BME280;40838;50.676;7.838;2023-01-13T01:41:47;97394.25;;;10.87;100.00
54936;BME280;40838;50.676;7.838;2023-01-13T01:45:02;97396.38;;;10.85;100.00
54936;BME280;40838;50.676;7.838;2023-01-13T01:47:38;97384.97;;;10.70;100.00
54936;BME280;40838;50.676;7.838;2023-01-13T01:50:07;97380.81;;;11.35;100.00
54936;BME280;40838;50.676;7.838;2023-01-13T01:52:36;97379.16;;;11.70;100.00
54936;BME280;40838;50.676;7.838;2023-01-13T01:55:09;97381.34;;;11.32;100.00
54936;BME280;40838;50.676;7.838;2023-01-13T01:57:42;97376.56;;;11.44;100.00
54936;BME280;40838;50.676;7.838;2023-01-13T02:00:14;97381.34;;;11.32;100.00
54936;BME280;40838;50.676;7.838;2023-01-13T02:02:45;97389.22;;;10.81;100.00
54936;BME280;40838;50.676;7.838;2023-01-13T02:05:13;97393.22;;;11.09;100.00
54936;BME280;40838;50.676;7.838;2023-01-13T02:07:41;97400.84;;;10.95;100.00
54936;BME280;40838;50.676;7.838;2023-01-13T02:10:13;97369.44;;;10.94;100.00
54936;BME280;40838;50.676;7.838;2023-01-13T02:12:41;97376.53;;;10.62;100.00
54936;BME280;40838;50.676;7.838;2023-01-13T02:15:11;97359.66;;;11.20;100.00
54936;BME280;40838;50.676;7.838;2023-01-13T02:17:56;97369.19;;;10.90;100.00
54936;BME280;40838;50.676;7.838;2023-01-13T02:21:00;97356.75;;;10.70;100.00
54936;BME280;40838;50.676;7.838;2023-01-13T02:23:53;97356.00;;;10.80;100.00
54936;BME280;40838;50.676;7.838;2023-01-13T02:27:09;97360.72;;;10.93;100.00
54936;BME280;40838;50.676;7.838;2023-01-13T02:29:51;97362.84;;;10.91;100.00
54936;BME280;40838;50.676;7.838;2023-01-13T02:32:47;97362.06;;;10.85;100.00
54936;BME280;40838;50.676;7.838;2023-01-13T02:35:23;97386.34;;;11.13;100.00
54936;BME280;40838;50.676;7.838;2023-01-13T02:37:52;97404.28;;;10.90;100.00
54936;BME280;40838;50.676;7.838;2023-01-13T02:40:23;97422.25;;;10.26;100.00
54936;BME280;40838;50.676;7.838;2023-01-13T02:42:56;97440.59;;;8.27;100.00
54936;BME280;40838;50.676;7.838;2023-01-13T02:45:48;97430.50;;;7.75;100.00
54936;BME280;40838;50.676;7.838;2023-01-13T02:48:16;97435.41;;;7.71;100.00
54936;BME280;40838;50.676;7.838;2023-01-13T02:50:49;97435.34;;;8.05;100.00
54936;BME280;40838;50.676;7.838;2023-01-13T02:53:21;97429.56;;;8.25;100.00
54936;BME280;40838;50.676;7.838;2023-01-13T02:55:53;97432.34;;;7.97;100.00
54936;BME280;40838;50.676;7.838;2023-01-13T02:58:26;97441.63;;;8.04;100.00
54936;BME280;40838;50.676;7.838;2023-01-13T03:00:55;97442.50;;;8.10;100.00
54936;BME280;40838;50.676;7.838;2023-01-13T03:03:22;97448.03;;;7.91;100.00
54936;BME280;40838;50.676;7.838;2023-01-13T03:05:52;97436.16;;;8.06;100.00
54936;BME280;40838;50.676;7.838;2023-01-13T03:08:30;97436.09;;;8.23;100.00
54936;BME280;40838;50.676;7.838;2023-01-13T03:11:01;97441.97;;;8.08;100.00
54936;BME280;40838;50.676;7.838;2023-01-13T03:13:44;97430.66;;;8.29;100.00
54936;BME280;40838;50.676;7.838;2023-01-13T03:16:22;97420.97;;;8.13;100.00
54936;BME280;40838;50.676;7.838;2023-01-13T03:19:07;97423.53;;;7.86;100.00
54936;BME280;40838;50.676;7.838;2023-01-13T03:21:40;97431.31;;;7.81;100.00
54936;BME280;40838;50.676;7.838;2023-01-13T03:24:14;97429.25;;;8.22;100.00
54936;BME280;40838;50.676;7.838;2023-01-13T03:26:48;97445.56;;;8.02;100.00
54936;BME280;40838;50.676;7.838;2023-01-13T03:29:19;97431.03;;;7.77;100.00
54936;BME280;40838;50.676;7.838;2023-01-13T03:31:54;97432.16;;;7.81;100.00
54936;BME280;40838;50.676;7.838;2023-01-13T03:34:24;97425.84;;;7.82;100.00
54936;BME280;40838;50.676;7.838;2023-01-13T03:36:54;97431.03;;;7.77;100.00
54936;BME280;40838;50.676;7.838;2023-01-13T03:39:27;97429.50;;;8.20;100.00
54936;BME280;40838;50.676;7.838;2023-01-13T03:41:58;97401.38;;;7.99;100.00
54936;BME280;40838;50.676;7.838;2023-01-13T03:44:30;97409.28;;;7.99;100.00
54936;BME280;40838;50.676;7.838;2023-01-13T03:47:07;97419.22;;;7.97;100.00
54936;BME280;40838;50.676;7.838;2023-01-13T03:49:38;97415.69;;;8.08;100.00
54936;BME280;40838;50.676;7.838;2023-01-13T03:52:12;97409.69;;;7.90;100.00
54936;BME280;40838;50.676;7.838;2023-01-13T03:54:47;97420.56;;;7.99;100.00
54936;BME280;40838;50.676;7.838;2023-01-13T03:57:19;97413.59;;;8.10;100.00
54936;BME280;40838;50.676;7.838;2023-01-13T03:59:53;97401.63;;;7.97;100.00
54936;BME280;40838;50.676;7.838;2023-01-13T04:02:31;97393.38;;;8.10;100.00
54936;BME280;40838;50.676;7.838;2023-01-13T04:05:01;97368.25;;;7.98;100.00
54936;BME280;40838;50.676;7.838;2023-01-13T04:07:38;97383.06;;;7.65;100.00
54936;BME280;40838;50.676;7.838;2023-01-13T04:10:09;97383.75;;;7.77;100.00
54936;BME280;40838;50.676;7.838;2023-01-13T04:12:39;97400.91;;;8.02;100.00
54936;BME280;40838;50.676;7.838;2023-01-13T04:15:30;97409.69;;;7.90;100.00
54936;BME280;40838;50.676;7.838;2023-01-13T04:18:09;97407.13;;;8.17;100.00
54936;BME280;40838;50.676;7.838;2023-01-13T04:20:36;97417.75;;;8.06;100.00
54936;BME280;40838;50.676;7.838;2023-01-13T04:23:04;97417.00;;;7.88;100.00
54936;BME280;40838;50.676;7.838;2023-01-13T04:25:31;97447.81;;;7.93;100.00
54936;BME280;40838;50.676;7.838;2023-01-13T04:27:58;97458.84;;;7.95;100.00
54936;BME280;40838;50.676;7.838;2023-01-13T04:30:25;97448.13;;;7.80;100.00
54936;BME280;40838;50.676;7.838;2023-01-13T04:32:51;97432.16;;;8.03;100.00
54936;BME280;40838;50.676;7.838;2023-01-13T04:35:20;97423.94;;;8.16;100.00
54936;BME280;40838;50.676;7.838;2023-01-13T04:37:46;97423.94;;;8.16;100.00
54936;BME280;40838;50.676;7.838;2023-01-13T04:40:14;97444.13;;;7.94;100.00
54936;BME280;40838;50.676;7.838;2023-01-13T04:42:44;97453.88;;;7.77;100.00
54936;BME280;40838;50.676;7.838;2023-01-13T04:45:12;97444.06;;;7.72;100.00
54936;BME280;40838;50.676;7.838;2023-01-13T04:47:39;97419.53;;;7.61;100.00
54936;BME280;40838;50.676;7.838;2023-01-13T04:50:08;97392.00;;;7.64;100.00
54936;BME280;40838;50.676;7.838;2023-01-13T04:52:37;97358.16;;;7.89;100.00
54936;BME280;40838;50.676;7.838;2023-01-13T04:55:05;97358.13;;;7.84;100.00
54936;BME280;40838;50.676;7.838;2023-01-13T04:57:33;97374.97;;;7.88;100.00
54936;BME280;40838;50.676;7.838;2023-01-13T05:00:04;97387.28;;;7.66;100.00
54936;BME280;40838;50.676;7.838;2023-01-13T05:02:31;97389.03;;;7.60;100.00
54936;BME280;40838;50.676;7.838;2023-01-13T05:05:02;97411.47;;;7.51;100.00
54936;BME280;40838;50.676;7.838;2023-01-13T05:07:31;97418.56;;;7.50;100.00
54936;BME280;40838;50.676;7.838;2023-01-13T05:09:59;97420.03;;;7.80;100.00
54936;BME280;40838;50.676;7.838;2023-01-13T05:12:26;97413.81;;;7.86;100.00
54936;BME280;40838;50.676;7.838;2023-01-13T05:15:11;97407.78;;;7.86;100.00
54936;BME280;40838;50.676;7.838;2023-01-13T05:17:55;97418.38;;;7.74;100.00
54936;BME280;40838;50.676;7.838;2023-01-13T05:20:23;97409.66;;;7.52;100.00
54936;BME280;40838;50.676;7.838;2023-01-13T05:22:50;97431.53;;;7.40;100.00
54936;BME280;40838;50.676;7.838;2023-01-13T05:25:38;97430.41;;;7.53;100.00
54936;BME280;40838;50.676;7.838;2023-01-13T05:28:05;97392.22;;;7.62;100.00
54936;BME280;40838;50.676;7.838;2023-01-13T05:30:38;97413.88;;;7.53;100.00
54936;BME280;40838;50.676;7.838;2023-01-13T05:33:07;97413.88;;;7.53;100.00
54936;BME280;40838;50.676;7.838;2023-01-13T05:35:36;97418.28;;;7.69;100.00
54936;BME280;40838;50.676;7.838;2023-01-13T05:38:03;97406.63;;;7.60;100.00
54936;BME280;40838;50.676;7.838;2023-01-13T05:40:36;97396.53;;;8.12;100.00
54936;BME280;40838;50.676;7.838;2023-01-13T05:43:21;97410.22;;;7.54;100.00
54936;BME280;40838;50.676;7.838;2023-01-13T05:45:51;97404.47;;;7.73;100.00
54936;BME280;40838;50.676;7.838;2023-01-13T05:48:22;97417.09;;;7.77;100.00
54936;BME280;40838;50.676;7.838;2023-01-13T05:50:49;97419.13;;;7.69;100.00
54936;BME280;40838;50.676;7.838;2023-01-13T05:53:19;97404.47;;;7.57;100.00
54936;BME280;40838;50.676;7.838;2023-01-13T05:55:47;97414.50;;;7.60;100.00
54936;BME280;40838;50.676;7.838;2023-01-13T05:58:17;97420.16;;;7.52;100.00
54936;BME280;40838;50.676;7.838;2023-01-13T06:00:47;97417.25;;;8.09;100.00
54936;BME280;40838;50.676;7.838;2023-01-13T06:03:16;97426.13;;;7.47;100.00
54936;BME280;40838;50.676;7.838;2023-01-13T06:05:44;97416.19;;;7.32;100.00
54936;BME280;40838;50.676;7.838;2023-01-13T06:08:12;97420.31;;;7.28;100.00
54936;BME280;40838;50.676;7.838;2023-01-13T06:10:39;97426.28;;;7.40;100.00
54936;BME280;40838;50.676;7.838;2023-01-13T06:13:07;97441.88;;;7.30;100.00
54936;BME280;40838;50.676;7.838;2023-01-13T06:15:34;97436.16;;;7.33;100.00
54936;BME280;40838;50.676;7.838;2023-01-13T06:18:01;97437.50;;;7.53;100.00
54936;BME280;40838;50.676;7.838;2023-01-13T06:20:28;97432.53;;;8.12;100.00
54936;BME280;40838;50.676;7.838;2023-01-13T06:22:55;97444.25;;;8.04;100.00
54936;BME280;40838;50.676;7.838;2023-01-13T06:25:31;97449.16;;;8.17;100.00
54936;BME280;40838;50.676;7.838;2023-01-13T06:28:01;97441.91;;;7.86;100.00
54936;BME280;40838;50.676;7.838;2023-01-13T06:30:32;97446.84;;;7.99;100.00
54936;BME280;40838;50.676;7.838;2023-01-13T06:33:02;97451.25;;;7.60;100.00
54936;BME280;40838;50.676;7.838;2023-01-13T06:35:33;97444.69;;;7.96;100.00
54936;BME280;40838;50.676;7.838;2023-01-13T06:38:03;97447.47;;;7.89;100.00
54936;BME280;40838;50.676;7.838;2023-01-13T06:40:30;97457.47;;;8.09;100.00
54936;BME280;40838;50.676;7.838;2023-01-13T06:42:57;97451.78;;;7.28;100.00
54936;BME280;40838;50.676;7.838;2023-01-13T06:45:49;97461.81;;;7.14;100.00
54936;BME280;40838;50.676;7.838;2023-01-13T06:48:18;97458.22;;;7.03;100.00
54936;BME280;40838;50.676;7.838;2023-01-13T06:50:45;97454.91;;;7.25;100.00
54936;BME280;40838;50.676;7.838;2023-01-13T06:53:12;97457.59;;;7.13;100.00
54936;BME280;40838;50.676;7.838;2023-01-13T06:55:39;97459.78;;;6.88;100.00
54936;BME280;40838;50.676;7.838;2023-01-13T06:58:06;97459.81;;;7.21;100.00
54936;BME280;40838;50.676;7.838;2023-01-13T07:00:33;97467.28;;;7.13;100.00
54936;BME280;40838;50.676;7.838;2023-01-13T07:03:07;97474.50;;;7.34;100.00
54936;BME280;40838;50.676;7.838;2023-01-13T07:05:34;97481.88;;;6.92;100.00
54936;BME280;40838;50.676;7.838;2023-01-13T07:08:01;97484.66;;;7.14;100.00
54936;BME280;40838;50.676;7.838;2023-01-13T07:10:29;97490.22;;;7.17;100.00
54936;BME280;40838;50.676;7.838;2023-01-13T07:12:59;97475.47;;;7.16;100.00
54936;BME280;40838;50.676;7.838;2023-01-13T07:15:52;97481.34;;;7.07;100.00
54936;BME280;40838;50.676;7.838;2023-01-13T07:18:34;97480.59;;;7.23;100.00
54936;BME280;40838;50.676;7.838;2023-01-13T07:21:03;97482.50;;;7.27;100.00
54936;BME280;40838;50.676;7.838;2023-01-13T07:23:33;97481.22;;;7.30;100.00
54936;BME280;40838;50.676;7.838;2023-01-13T07:26:02;97497.69;;;7.25;100.00
54936;BME280;40838;50.676;7.838;2023-01-13T07:28:31;97491.19;;;7.62;100.00
54936;BME280;40838;50.676;7.838;2023-01-13T07:30:59;97495.09;;;7.59;100.00
54936;BME280;40838;50.676;7.838;2023-01-13T07:33:27;97492.72;;;7.58;100.00
54936;BME280;40838;50.676;7.838;2023-01-13T07:36:00;97502.16;;;7.59;100.00
54936;BME280;40838;50.676;7.838;2023-01-13T07:38:27;97502.69;;;6.81;100.00
54936;BME280;40838;50.676;7.838;2023-01-13T07:40:55;97508.31;;;6.62;100.00
54936;BME280;40838;50.676;7.838;2023-01-13T07:43:21;97500.00;;;6.65;100.00
54936;BME280;40838;50.676;7.838;2023-01-13T07:45:56;97512.84;;;6.66;100.00
54936;BME280;40838;50.676;7.838;2023-01-13T07:48:24;97501.75;;;7.33;100.00
54936;BME280;40838;50.676;7.838;2023-01-13T07:50:51;97502.16;;;6.96;100.00
54936;BME280;40838;50.676;7.838;2023-01-13T07:53:20;97500.44;;;7.64;100.00
54936;BME280;40838;50.676;7.838;2023-01-13T07:55:49;97500.66;;;7.97;100.00
54936;BME280;40838;50.676;7.838;2023-01-13T07:58:18;97499.66;;;8.20;100.00
54936;BME280;40838;50.676;7.838;2023-01-13T08:00:44;97508.06;;;8.22;100.00
54936;BME280;40838;50.676;7.838;2023-01-13T08:03:11;97503.03;;;8.37;100.00
54936;BME280;40838;50.676;7.838;2023-01-13T08:05:38;97505.75;;;8.42;100.00
54936;BME280;40838;50.676;7.838;2023-01-13T08:08:05;97495.16;;;8.37;100.00
54936;BME280;40838;50.676;7.838;2023-01-13T08:10:34;97510.44;;;7.67;100.00
54936;BME280;40838;50.676;7.838;2023-01-13T08:13:07;97509.56;;;7.45;100.00
54936;BME280;40838;50.676;7.838;2023-01-13T08:15:45;97509.00;;;7.77;100.00
54936;BME280;40838;50.676;7.838;2023-01-13T08:18:13;97500.56;;;7.75;100.00
54936;BME280;40838;50.676;7.838;2023-01-13T08:20:40;97512.81;;;7.35;100.00
54936;BME280;40838;50.676;7.838;2023-01-13T08:23:07;97512.09;;;7.57;100.00
54936;BME280;40838;50.676;7.838;2023-01-13T08:25:35;97518.56;;;7.66;100.00
54936;BME280;40838;50.676;7.838;2023-01-13T08:28:02;97519.97;;;7.57;100.00
54936;BME280;40838;50.676;7.838;2023-01-13T08:30:30;97523.78;;;7.32;100.00
54936;BME280;40838;50.676;7.838;2023-01-13T08:32:57;97538.09;;;6.84;100.00
54936;BME280;40838;50.676;7.838;2023-01-13T08:35:24;97530.34;;;6.89;100.00
54936;BME280;40838;50.676;7.838;2023-01-13T08:37:51;97539.25;;;7.17;100.00
54936;BME280;40838;50.676;7.838;2023-01-13T08:40:18;97555.97;;;6.99;100.00
54936;BME280;40838;50.676;7.838;2023-01-13T08:42:48;97545.16;;;7.24;100.00
54936;BME280;40838;50.676;7.838;2023-01-13T08:45:15;97548.34;;;6.97;100.00
54936;BME280;40838;50.676;7.838;2023-01-13T08:47:42;97558.50;;;6.94;100.00
54936;BME280;40838;50.676;7.838;2023-01-13T08:50:10;97565.25;;;6.78;100.00
54936;BME280;40838;50.676;7.838;2023-01-13T08:52:38;97578.06;;;6.51;100.00
54936;BME280;40838;50.676;7.838;2023-01-13T08:55:06;97577.72;;;6.59;100.00
54936;BME280;40838;50.676;7.838;2023-01-13T08:57:33;97580.09;;;6.61;100.00
54936;BME280;40838;50.676;7.838;2023-01-13T09:00:03;97577.72;;;6.71;100.00
54936;BME280;40838;50.676;7.838;2023-01-13T09:02:30;97584.09;;;7.15;100.00
54936;BME280;40838;50.676;7.838;2023-01-13T09:04:58;97567.66;;;8.94;100.00
54936;BME280;40838;50.676;7.838;2023-01-13T09:07:27;97568.34;;;11.66;100.00
54936;BME280;40838;50.676;7.838;2023-01-13T09:09:54;97578.81;;;11.20;100.00
54936;BME280;40838;50.676;7.838;2023-01-13T09:12:21;97573.13;;;12.30;100.00
54936;BME280;40838;50.676;7.838;2023-01-13T09:15:08;97563.81;;;12.53;100.00
54936;BME280;40838;50.676;7.838;2023-01-13T09:17:43;97580.75;;;11.45;100.00
54936;BME280;40838;50.676;7.838;2023-01-13T09:20:11;97581.56;;;11.66;100.00
54936;BME280;40838;50.676;7.838;2023-01-13T09:22:38;97582.94;;;12.04;100.00
54936;BME280;40838;50.676;7.838;2023-01-13T09:25:05;97587.38;;;11.63;100.00
54936;BME280;40838;50.676;7.838;2023-01-13T09:27:32;97586.91;;;12.07;100.00
54936;BME280;40838;50.676;7.838;2023-01-13T09:29:59;97593.16;;;11.49;100.00
54936;BME280;40838;50.676;7.838;2023-01-13T09:32:27;97586.66;;;12.08;100.00
54936;BME280;40838;50.676;7.838;2023-01-13T09:34:54;97595.03;;;11.69;100.00
54936;BME280;40838;50.676;7.838;2023-01-13T09:37:27;97590.28;;;12.53;100.00
54936;BME280;40838;50.676;7.838;2023-01-13T09:39:54;97581.88;;;12.00;100.00
54936;BME280;40838;50.676;7.838;2023-01-13T09:42:28;97589.81;;;12.00;100.00
54936;BME280;40838;50.676;7.838;2023-01-13T09:45:16;97589.25;;;11.83;100.00
54936;BME280;40838;50.676;7.838;2023-01-13T09:47:52;97591.06;;;11.67;100.00
54936;BME280;40838;50.676;7.838;2023-01-13T09:50:32;97602.91;;;10.28;100.00
54936;BME280;40838;50.676;7.838;2023-01-13T09:53:04;97592.25;;;9.81;100.00
54936;BME280;40838;50.676;7.838;2023-01-13T09:55:35;97597.16;;;8.96;100.00
54936;BME280;40838;50.676;7.838;2023-01-13T09:58:10;97595.94;;;8.43;100.00
54936;BME280;40838;50.676;7.838;2023-01-13T10:00:44;97598.56;;;9.25;100.00
54936;BME280;40838;50.676;7.838;2023-01-13T10:03:22;97605.31;;;9.70;100.00
54936;BME280;40838;50.676;7.838;2023-01-13T10:05:56;97605.22;;;9.33;100.00
54936;BME280;40838;50.676;7.838;2023-01-13T10:08:27;97603.34;;;9.56;100.00
54936;BME280;40838;50.676;7.838;2023-01-13T10:10:57;97602.03;;;8.65;100.00
54936;BME280;40838;50.676;7.838;2023-01-13T10:13:26;97607.31;;;10.55;100.00
54936;BME280;40838;50.676;7.838;2023-01-13T10:16:04;97608.59;;;10.47;100.00
54936;BME280;40838;50.676;7.838;2023-01-13T10:18:46;97598.47;;;10.34;100.00
54936;BME280;40838;50.676;7.838;2023-01-13T10:21:42;97591.81;;;9.94;100.00
54936;BME280;40838;50.676;7.838;2023-01-13T10:24:18;97579.31;;;11.06;100.00
54936;BME280;40838;50.676;7.838;2023-01-13T10:26:54;97579.41;;;12.55;100.00
54936;BME280;40838;50.676;7.838;2023-01-13T10:29:27;97585.22;;;11.49;100.00
54936;BME280;40838;50.676;7.838;2023-01-13T10:31:56;97585.75;;;11.46;100.00
54936;BME280;40838;50.676;7.838;2023-01-13T10:34:26;97578.19;;;13.12;100.00
54936;BME280;40838;50.676;7.838;2023-01-13T10:36:59;97583.38;;;12.73;100.00
54936;BME280;40838;50.676;7.838;2023-01-13T10:39:38;97591.81;;;10.69;100.00
54936;BME280;40838;50.676;7.838;2023-01-13T10:42:09;97588.25;;;10.10;100.00
54936;BME280;40838;50.676;7.838;2023-01-13T10:44:49;97599.03;;;9.22;100.00
54936;BME280;40838;50.676;7.838;2023-01-13T10:47:21;97584.47;;;10.76;100.00
54936;BME280;40838;50.676;7.838;2023-01-13T10:50:02;97583.44;;;10.34;100.00
54936;BME280;40838;50.676;7.838;2023-01-13T10:52:33;97590.28;;;11.61;100.00
54936;BME280;40838;50.676;7.838;2023-01-13T10:55:11;97595.28;;;11.57;100.00
54936;BME280;40838;50.676;7.838;2023-01-13T10:57:48;97579.41;;;12.55;100.00
54936;BME280;40838;50.676;7.838;2023-01-13T11:00:26;97588.16;;;12.60;100.00
54936;BME280;40838;50.676;7.838;2023-01-13T11:03:09;97595.41;;;13.04;100.00
54936;BME280;40838;50.676;7.838;2023-01-13T11:05:47;97592.28;;;12.87;100.00
54936;BME280;40838;50.676;7.838;2023-01-13T11:08:16;97585.22;;;11.34;100.00
54936;BME280;40838;50.676;7.838;2023-01-13T11:10:46;97591.13;;;10.88;100.00
54936;BME280;40838;50.676;7.838;2023-01-13T11:13:16;97591.16;;;10.46;100.00
54936;BME280;40838;50.676;7.838;2023-01-13T11:15:49;97595.13;;;9.79;100.00
54936;BME280;40838;50.676;7.838;2023-01-13T11:18:24;97599.16;;;9.87;100.00
54936;BME280;40838;50.676;7.838;2023-01-13T11:20:57;97588.44;;;9.66;100.00
54936;BME280;40838;50.676;7.838;2023-01-13T11:23:30;97605.72;;;9.57;100.00
54936;BME280;40838;50.676;7.838;2023-01-13T11:26:03;97599.19;;;9.65;100.00
54936;BME280;40838;50.676;7.838;2023-01-13T11:28:44;97618.47;;;9.43;100.00
54936;BME280;40838;50.676;7.838;2023-01-13T11:31:17;97618.06;;;9.51;100.00
54936;BME280;40838;50.676;7.838;2023-01-13T11:33:50;97620.25;;;9.60;100.00
54936;BME280;40838;50.676;7.838;2023-01-13T11:36:24;97612.63;;;9.63;100.00
54936;BME280;40838;50.676;7.838;2023-01-13T11:38:59;97612.28;;;9.54;100.00
54936;BME280;40838;50.676;7.838;2023-01-13T11:41:42;97612.47;;;9.75;100.00
54936;BME280;40838;50.676;7.838;2023-01-13T11:44:15;97621.75;;;9.56;100.00
54936;BME280;40838;50.676;7.838;2023-01-13T11:46:47;97615.75;;;9.60;100.00
54936;BME280;40838;50.676;7.838;2023-01-13T11:49:24;97617.69;;;9.70;100.00
54936;BME280;40838;50.676;7.838;2023-01-13T11:51:58;97624.97;;;9.58;100.00
54936;BME280;40838;50.676;7.838;2023-01-13T11:54:44;97626.00;;;9.57;100.00
54936;BME280;40838;50.676;7.838;2023-01-13T11:57:38;97625.16;;;9.29;100.00
54936;BME280;40838;50.676;7.838;2023-01-13T12:00:23;97622.97;;;9.43;100.00
54936;BME280;40838;50.676;7.838;2023-01-13T12:03:00;97620.03;;;9.66;100.00
54936;BME280;40838;50.676;7.838;2023-01-13T12:05:45;97626.59;;;9.64;100.00
54936;BME280;40838;50.676;7.838;2023-01-13T12:08:21;97634.63;;;9.74;100.00
54936;BME280;40838;50.676;7.838;2023-01-13T12:10:59;97628.19;;;9.65;100.00
54936;BME280;40838;50.676;7.838;2023-01-13T12:13:36;97634.19;;;9.87;100.00
54936;BME280;40838;50.676;7.838;2023-01-13T12:16:13;97629.88;;;9.76;100.00
54936;BME280;40838;50.676;7.838;2023-01-13T12:19:24;97628.88;;;10.14;100.00
54936;BME280;40838;50.676;7.838;2023-01-13T12:22:02;97637.50;;;10.05;100.00
54936;BME280;40838;50.676;7.838;2023-01-13T12:24:40;97631.00;;;10.17;100.00
54936;BME280;40838;50.676;7.838;2023-01-13T12:27:17;97627.69;;;9.95;100.00
54936;BME280;40838;50.676;7.838;2023-01-13T12:29:49;97625.16;;;10.10;100.00
54936;BME280;40838;50.676;7.838;2023-01-13T12:32:22;97635.94;;;10.09;100.00
54936;BME280;40838;50.676;7.838;2023-01-13T12:35:27;97620.97;;;10.14;100.00
54936;BME280;40838;50.676;7.838;2023-01-13T12:38:03;97618.31;;;10.09;100.00
54936;BME280;40838;50.676;7.838;2023-01-13T12:40:46;97618.84;;;10.11;100.00
54936;BME280;40838;50.676;7.838;2023-01-13T12:43:20;97606.53;;;10.22;100.00
54936;BME280;40838;50.676;7.838;2023-01-13T12:46:44;97619.75;;;9.63;100.00
54936;BME280;40838;50.676;7.838;2023-01-13T12:49:22;97624.44;;;9.34;100.00
54936;BME280;40838;50.676;7.838;2023-01-13T12:52:17;97659.19;;;8.92;100.00
54936;BME280;40838;50.676;7.838;2023-01-13T12:55:15;97712.09;;;8.39;100.00
54936;BME280;40838;50.676;7.838;2023-01-13T12:58:17;97660.31;;;7.09;100.00
54936;BME280;40838;50.676;7.838;2023-01-13T13:00:59;97661.38;;;7.36;100.00
54936;BME280;40838;50.676;7.838;2023-01-13T13:03:34;97664.56;;;7.67;100.00
54936;BME280;40838;50.676;7.838;2023-01-13T13:06:16;97668.09;;;8.35;100.00
54936;BME280;40838;50.676;7.838;2023-01-13T13:08:59;97659.72;;;8.72;100.00
54936;BME280;40838;50.676;7.838;2023-01-13T13:11:50;97655.66;;;8.30;100.00
54936;BME280;40838;50.676;7.838;2023-01-13T13:15:16;97650.94;;;8.32;100.00
54936;BME280;40838;50.676;7.838;2023-01-13T13:17:59;97651.19;;;8.65;100.00
54936;BME280;40838;50.676;7.838;2023-01-13T13:23:43;97656.16;;;8.61;100.00
54936;BME280;40838;50.676;7.838;2023-01-13T13:26:22;97660.75;;;8.54;100.00
54936;BME280;40838;50.676;7.838;2023-01-13T13:29:04;97657.88;;;8.22;100.00
54936;BME280;40838;50.676;7.838;2023-01-13T13:31:50;97660.91;;;8.64;100.00